Racine, WI

7:23 PM CDT on October 31, 2014 (GMT -0500)
KWIRACIN22 | Change Station
CLOSE
Current Station
Personal Weather Station
Location: Racine, WI
Elevation: 643 ft
Nearby Weather Stations

Elev 643 ft 42.72 °N, 87.79 °W | Updated 8 minutes ago

Overcast
Overcast
38.1 °F
Feels Like 32 °F
N
8.9
Wind Variable Wind from East

Today
High -- | Low -- °F
--% Chance of Precip.
Yesterday
High -- | Low -- °F
Precip. -- in
7:23 AM 5:45 PM
First Quarter, 60% visible
Pressure 30.37 in
Visibility 10.0 miles
Clouds Overcast 4100 ft
Windchill 32 °F
Dew Point 26 °F
Humidity 62%
Rainfall 0.07 in
Snow Depth Not available.
UV 0 out of 12
Pollen .40 out of 12
Air Quality Not available.
Flu Activity Not available.
METAR KRAC 312353Z AUTO 01022G33KT 10SM OVC041 03/M06 A3035 RMK AO2 PK WND 35034/2327 SLP282 60000 T00331056 10039 20028 51024

More Conditions Fewer Conditions

Pressure 30.37 in
Visibility 10.0 miles
Clouds Overcast 4100 ft
Windchill 32 °F
Dew Point 26 °F
Humidity 62%
Rainfall 0.07 in
Snow Depth Not available.
UV 0 out of 12
Pollen .40 out of 12
Air Quality Not available.
Flu Activity Not available.
METAR KRAC 312353Z AUTO 01022G33KT 10SM OVC041 03/M06 A3035 RMK AO2 PK WND 35034/2327 SLP282 60000 T00331056 10039 20028 51024

More Conditions Fewer Conditions

10-Day Weather Forecast

Almanac

Astronomy

Oct. 31, 2014 Rise Set
Actual Time
Civil Twilight
Nautical Twilight
Astronomical Twilight
Moon
Length of Visible Light
Length of Day
Tomorrow will be .
, % of the Moon is Illuminated

Today's Extremes

State Highs State Lows

Community

WunderPhotos

Upload Photos

1,766,792 photos uploaded!

WunderBlogs® & News

Nearby

Air Quality

  Air Quality AQ Index Pollutant
Not available.

Snow Depth

Station Depth Elevation

Earthquake Activity

City Distance Mag. Time & Date
Minimum magnitude displayed is 2.5.

Coastal Water Temperatures

Place Temperature

Nearby Weather Stations